createdAt,value
2023-01-22T00:00:30.000Z,101315.34
2023-01-22T00:03:01.157Z,101317.94
2023-01-22T00:05:32.005Z,101317.47
2023-01-22T00:08:03.064Z,101314.88
2023-01-22T00:10:34.129Z,101314.59
2023-01-22T00:13:04.821Z,101332.06
2023-01-22T00:15:36.364Z,101315.59
2023-01-22T00:18:07.602Z,101335.06
2023-01-22T00:20:39.327Z,101319.25
2023-01-22T00:23:11.935Z,101320.50
2023-01-22T00:25:42.727Z,101331.84
2023-01-22T00:28:14.564Z,101336.59
2023-01-22T00:30:45.602Z,101331.69
2023-01-22T00:33:16.724Z,101332.69
2023-01-22T00:35:47.629Z,101329.91
2023-01-22T00:38:18.702Z,101344.69
2023-01-22T00:40:49.845Z,101338.34
2023-01-22T00:43:20.686Z,101344.66
2023-01-22T00:45:52.003Z,101341.72
2023-01-22T00:48:22.757Z,101337.66
2023-01-22T00:50:54.510Z,101346.31
2023-01-22T00:53:25.742Z,101352.41
2023-01-22T00:55:58.645Z,101358.72
2023-01-22T00:58:30.359Z,101357.91
2023-01-22T01:01:03.655Z,101353.66
2023-01-22T01:03:36.913Z,101343.34
2023-01-22T01:06:15.730Z,101365.47
2023-01-22T01:08:49.239Z,101358.84
2023-01-22T01:11:23.355Z,101373.78
2023-01-22T01:13:54.834Z,101372.91
2023-01-22T01:16:31.750Z,101377.06
2023-01-22T01:19:04.777Z,101392.91
2023-01-22T01:21:36.541Z,101381.00
2023-01-22T01:24:07.937Z,101396.53
2023-01-22T01:26:39.144Z,101408.88
2023-01-22T01:29:11.543Z,101404.59
2023-01-22T01:31:42.678Z,101399.41
2023-01-22T01:34:14.952Z,101395.38
2023-01-22T01:36:49.129Z,101387.00
2023-01-22T01:39:21.954Z,101367.59
2023-01-22T01:41:53.109Z,101378.59
2023-01-22T01:44:25.750Z,101378.41
2023-01-22T01:47:08.062Z,101371.72
2023-01-22T01:49:49.877Z,101370.41
2023-01-22T01:52:20.300Z,101367.91
2023-01-22T01:54:54.509Z,101369.53
2023-01-22T01:57:29.908Z,101361.50
2023-01-22T02:00:02.700Z,101363.03
2023-01-22T02:02:43.663Z,101365.88
2023-01-22T02:05:14.835Z,101352.06
2023-01-22T02:07:46.003Z,101350.97
2023-01-22T02:10:17.205Z,101348.59
2023-01-22T02:12:49.218Z,101353.22
2023-01-22T02:15:20.441Z,101347.47
2023-01-22T02:17:52.585Z,101341.03
2023-01-22T02:20:24.610Z,101328.72
2023-01-22T02:22:56.009Z,101336.81
2023-01-22T02:25:27.922Z,101327.84
2023-01-22T02:27:58.241Z,101334.53
2023-01-22T02:30:29.465Z,101329.38
2023-01-22T02:33:00.231Z,101329.84
2023-01-22T02:35:31.315Z,101322.16
2023-01-22T02:38:02.655Z,101312.03
2023-01-22T02:40:35.240Z,101308.91
2023-01-22T02:43:07.185Z,101304.69
2023-01-22T02:45:38.484Z,101314.28
2023-01-22T02:48:09.459Z,101308.03
2023-01-22T02:50:40.585Z,101296.84
2023-01-22T02:53:11.592Z,101297.75
2023-01-22T02:55:43.346Z,101294.34
2023-01-22T02:58:14.702Z,101293.25
2023-01-22T03:00:45.945Z,101301.59
2023-01-22T03:03:19.666Z,101298.00
2023-01-22T03:05:54.753Z,101301.88
2023-01-22T03:08:28.100Z,101314.28
2023-01-22T03:11:02.969Z,101299.75
2023-01-22T03:13:52.757Z,101301.34
2023-01-22T03:16:42.022Z,101300.56
2023-01-22T03:19:31.827Z,101291.41
2023-01-22T03:22:03.000Z,101295.16
2023-01-22T03:24:34.589Z,101295.69
2023-01-22T03:27:07.751Z,101281.28
2023-01-22T03:29:40.353Z,101281.78
2023-01-22T03:32:13.069Z,101279.50
2023-01-22T03:34:45.690Z,101273.00
2023-01-22T03:37:17.017Z,101279.28
2023-01-22T03:39:50.424Z,101272.72
2023-01-22T03:42:28.605Z,101278.16
2023-01-22T03:44:59.884Z,101272.78
2023-01-22T03:47:31.540Z,101272.59
2023-01-22T03:50:04.920Z,101267.97
2023-01-22T03:52:35.311Z,101261.91
2023-01-22T03:55:07.003Z,101260.03
2023-01-22T03:57:38.073Z,101256.75
2023-01-22T04:00:10.481Z,101256.16
2023-01-22T04:02:44.318Z,101253.41
2023-01-22T04:05:23.634Z,101248.94
2023-01-22T04:07:55.165Z,101245.06
2023-01-22T04:10:29.708Z,101247.28
2023-01-22T04:13:03.137Z,101245.16
2023-01-22T04:15:34.215Z,101246.78
2023-01-22T04:18:11.284Z,101239.97
2023-01-22T04:21:07.207Z,101236.38
2023-01-22T04:23:45.721Z,101247.91
2023-01-22T04:26:16.955Z,101244.03
2023-01-22T04:28:48.160Z,101240.22
2023-01-22T04:31:19.452Z,101237.25
2023-01-22T04:34:13.562Z,101240.84
2023-01-22T04:36:49.295Z,101236.69
2023-01-22T04:39:20.964Z,101241.19
2023-01-22T04:41:52.280Z,101229.41
2023-01-22T04:44:23.397Z,101235.84
2023-01-22T04:46:54.267Z,101226.78
2023-01-22T04:49:25.889Z,101227.25
2023-01-22T04:51:57.779Z,101225.50
2023-01-22T04:54:30.357Z,101222.00
2023-01-22T04:57:01.500Z,101229.78
2023-01-22T04:59:32.854Z,101221.63
2023-01-22T05:02:05.564Z,101209.88
2023-01-22T05:04:36.660Z,101220.44
2023-01-22T05:07:07.786Z,101220.06
2023-01-22T05:09:38.874Z,101212.28
2023-01-22T05:12:10.012Z,101213.84
2023-01-22T05:14:44.462Z,101205.91
2023-01-22T05:17:15.666Z,101210.06
2023-01-22T05:19:47.549Z,101212.38
2023-01-22T05:22:25.099Z,101219.81
2023-01-22T05:24:56.224Z,101224.22
2023-01-22T05:27:27.467Z,101219.53
2023-01-22T05:30:07.260Z,101219.31
2023-01-22T05:32:48.938Z,101227.66
2023-01-22T05:35:19.539Z,101222.47
2023-01-22T05:37:50.647Z,101230.09
2023-01-22T05:40:22.748Z,101213.97
2023-01-22T05:42:54.129Z,101210.25
2023-01-22T05:45:25.706Z,101209.75
2023-01-22T05:48:23.120Z,101211.00
2023-01-22T05:51:10.587Z,101203.28
2023-01-22T05:53:42.139Z,101208.06
2023-01-22T05:56:13.439Z,101205.13
2023-01-22T05:58:44.693Z,101197.09
2023-01-22T06:01:15.952Z,101204.09
2023-01-22T06:03:51.295Z,101191.88
2023-01-22T06:06:25.722Z,101206.00
2023-01-22T06:08:58.327Z,101204.59
2023-01-22T06:11:35.037Z,101205.38
2023-01-22T06:14:06.567Z,101203.72
2023-01-22T06:16:37.625Z,101195.59
2023-01-22T06:19:12.819Z,101205.88
2023-01-22T06:21:48.173Z,101208.06
2023-01-22T06:24:21.465Z,101204.69
2023-01-22T06:26:52.431Z,101203.09
2023-01-22T06:29:24.973Z,101218.78
2023-01-22T06:31:56.736Z,101218.94
2023-01-22T06:34:27.967Z,101206.56
2023-01-22T06:37:00.116Z,101218.97
2023-01-22T06:39:35.010Z,101226.06
2023-01-22T06:42:16.149Z,101236.47
2023-01-22T06:44:47.609Z,101224.09
2023-01-22T06:47:18.733Z,101232.69
2023-01-22T06:49:50.127Z,101235.50
2023-01-22T06:52:21.625Z,101234.56
2023-01-22T06:54:52.779Z,101229.88
2023-01-22T06:57:24.610Z,101235.47
2023-01-22T06:59:55.699Z,101220.97
2023-01-22T07:02:26.968Z,101232.19
2023-01-22T07:04:58.051Z,101243.81
2023-01-22T07:07:29.184Z,101242.03
2023-01-22T07:10:00.244Z,101245.38
2023-01-22T07:12:31.467Z,101240.19
2023-01-22T07:15:02.567Z,101240.94
2023-01-22T07:17:33.666Z,101241.72
2023-01-22T07:20:05.343Z,101236.91
2023-01-22T07:22:36.001Z,101240.97
2023-01-22T07:25:08.440Z,101242.59
2023-01-22T07:27:39.975Z,101252.47
2023-01-22T07:30:11.818Z,101259.72
2023-01-22T07:32:43.338Z,101260.94
2023-01-22T07:35:14.390Z,101269.81
2023-01-22T07:37:45.812Z,101269.16
2023-01-22T07:40:17.307Z,101271.25
2023-01-22T07:42:47.982Z,101286.19
2023-01-22T07:45:20.755Z,101292.31
2023-01-22T07:47:59.477Z,101297.47
2023-01-22T07:50:32.835Z,101300.50
2023-01-22T07:53:03.911Z,101301.38
2023-01-22T07:55:35.034Z,101308.31
2023-01-22T07:58:08.146Z,101302.81
2023-01-22T08:00:39.473Z,101318.53
2023-01-22T08:03:14.955Z,101327.66
2023-01-22T08:05:46.013Z,101317.53
2023-01-22T08:08:20.035Z,101319.00
2023-01-22T08:10:51.072Z,101311.91
2023-01-22T08:13:22.052Z,101315.84
2023-01-22T08:15:53.145Z,101320.09
2023-01-22T08:18:24.522Z,101326.97
2023-01-22T08:20:55.420Z,101329.63
2023-01-22T08:23:26.449Z,101341.66
2023-01-22T08:26:02.572Z,101345.81
2023-01-22T08:28:34.044Z,101338.47
2023-01-22T08:31:09.372Z,101339.63
2023-01-22T08:33:42.478Z,101349.69
2023-01-22T08:36:13.796Z,101354.38
2023-01-22T08:38:44.875Z,101362.63
2023-01-22T08:41:17.190Z,101362.00
2023-01-22T08:43:48.073Z,101370.75
2023-01-22T08:46:19.126Z,101380.09
2023-01-22T08:48:51.853Z,101383.94
2023-01-22T08:51:24.914Z,101389.06
2023-01-22T08:53:56.326Z,101392.31
2023-01-22T08:56:27.245Z,101385.44
2023-01-22T08:59:01.539Z,101370.53
2023-01-22T09:01:32.655Z,101367.81
2023-01-22T09:04:04.362Z,101375.44
2023-01-22T09:06:35.961Z,101380.38
2023-01-22T09:09:07.791Z,101380.38
2023-01-22T09:11:38.260Z,101383.66
2023-01-22T09:14:11.261Z,101386.09
2023-01-22T09:16:42.472Z,101378.38
2023-01-22T09:19:13.995Z,101389.56
2023-01-22T09:21:45.259Z,101387.19
2023-01-22T09:24:16.179Z,101394.88
2023-01-22T09:26:47.724Z,101395.97
2023-01-22T09:29:18.996Z,101409.34
2023-01-22T09:31:52.485Z,101416.16
2023-01-22T09:34:23.545Z,101420.00
2023-01-22T09:36:54.541Z,101422.19
2023-01-22T09:39:25.804Z,101415.09
2023-01-22T09:41:59.054Z,101432.25
2023-01-22T09:44:46.708Z,101426.03
2023-01-22T09:47:24.242Z,101429.59
2023-01-22T09:50:18.751Z,101433.38
2023-01-22T09:52:53.587Z,101441.31
2023-01-22T09:55:26.868Z,101423.84
2023-01-22T09:57:59.039Z,101432.03
2023-01-22T10:00:45.616Z,101427.44
2023-01-22T10:03:24.705Z,101420.63
2023-01-22T10:06:03.609Z,101413.53
2023-01-22T10:09:01.131Z,101421.16
2023-01-22T10:11:31.997Z,101415.16
2023-01-22T10:14:04.505Z,101424.75
2023-01-22T10:16:35.756Z,101423.66
2023-01-22T10:19:08.724Z,101420.94
2023-01-22T10:21:49.170Z,101419.00
2023-01-22T10:24:20.003Z,101422.84
2023-01-22T10:26:56.034Z,101418.47
2023-01-22T10:29:33.763Z,101428.84
2023-01-22T10:32:33.766Z,101435.13
2023-01-22T10:35:04.992Z,101442.75
2023-01-22T10:37:50.147Z,101439.47
2023-01-22T10:40:36.470Z,101444.09
2023-01-22T10:43:19.312Z,101444.09
2023-01-22T10:45:58.325Z,101445.19
2023-01-22T10:48:29.497Z,101447.09
2023-01-22T10:51:14.246Z,101436.72
2023-01-22T10:53:57.068Z,101450.91
2023-01-22T10:56:36.762Z,101450.06
2023-01-22T10:59:24.971Z,101450.59
2023-01-22T11:02:01.646Z,101451.16
2023-01-22T11:04:35.030Z,101445.97
2023-01-22T11:07:11.082Z,101451.69
2023-01-22T11:10:23.625Z,101440.47
2023-01-22T11:13:07.689Z,101454.94
2023-01-22T11:15:55.355Z,101458.72
2023-01-22T11:18:36.412Z,101456.00
2023-01-22T11:21:26.616Z,101460.06
2023-01-22T11:24:11.714Z,101460.34
2023-01-22T11:27:10.578Z,101463.56
2023-01-22T11:30:03.587Z,101457.44
2023-01-22T11:33:10.950Z,101463.47
2023-01-22T11:36:22.037Z,101460.72
2023-01-22T11:39:05.696Z,101464.00
2023-01-22T11:41:58.535Z,101478.69
2023-01-22T11:44:38.488Z,101473.44
2023-01-22T11:47:24.575Z,101475.94
2023-01-22T11:50:06.479Z,101486.53
2023-01-22T11:53:05.800Z,101485.19
2023-01-22T11:56:02.101Z,101487.91
2023-01-22T11:59:01.658Z,101483.97
2023-01-22T12:02:06.385Z,101492.84
2023-01-22T12:04:56.170Z,101491.00
2023-01-22T12:07:53.732Z,101490.41
2023-01-22T12:10:43.202Z,101498.31
2023-01-22T12:13:32.317Z,101494.72
2023-01-22T12:16:17.683Z,101496.91
2023-01-22T12:19:03.870Z,101496.91
2023-01-22T12:21:40.486Z,101503.59
2023-01-22T12:24:22.671Z,101500.69
2023-01-22T12:27:22.525Z,101496.16
2023-01-22T12:30:15.394Z,101494.66
2023-01-22T12:32:51.651Z,101483.78
2023-01-22T12:35:24.688Z,101487.69
2023-01-22T12:38:24.066Z,101484.88
2023-01-22T12:41:16.175Z,101480.72
2023-01-22T12:44:19.203Z,101489.16
2023-01-22T12:47:14.553Z,101470.94
2023-01-22T12:49:53.518Z,101472.34
2023-01-22T12:52:33.767Z,101467.16
2023-01-22T12:55:25.414Z,101461.00
2023-01-22T12:57:56.333Z,101460.84
2023-01-22T13:00:36.287Z,101454.63
2023-01-22T13:03:31.290Z,101448.69
2023-01-22T13:06:05.315Z,101448.75
2023-01-22T13:08:42.735Z,101452.63
2023-01-22T13:11:16.050Z,101454.91
2023-01-22T13:13:55.196Z,101445.69
2023-01-22T13:16:34.591Z,101431.34
2023-01-22T13:19:26.831Z,101434.25
2023-01-22T13:22:02.343Z,101432.44
2023-01-22T13:24:33.423Z,101430.56
2023-01-22T13:27:05.316Z,101429.22
2023-01-22T13:29:39.013Z,101426.25
2023-01-22T13:32:23.230Z,101403.78
2023-01-22T13:35:07.311Z,101411.97
2023-01-22T13:37:40.157Z,101401.72
2023-01-22T13:40:27.340Z,101394.88
2023-01-22T13:42:59.824Z,101388.63
2023-01-22T13:45:33.181Z,101390.03
2023-01-22T13:48:07.250Z,101393.59
2023-01-22T13:50:39.660Z,101384.66
2023-01-22T13:53:20.881Z,101375.31
2023-01-22T13:55:52.364Z,101385.63
2023-01-22T13:58:48.379Z,101384.06
2023-01-22T14:01:31.866Z,101376.59
2023-01-22T14:04:06.993Z,101370.66
2023-01-22T14:06:50.779Z,101366.03
2023-01-22T14:09:28.711Z,101375.84
2023-01-22T14:12:00.554Z,101374.25
2023-01-22T14:14:41.921Z,101370.69
2023-01-22T14:17:30.513Z,101373.28
2023-01-22T14:20:01.717Z,101372.25
2023-01-22T14:22:32.911Z,101372.25
2023-01-22T14:25:04.150Z,101366.63
2023-01-22T14:27:49.998Z,101362.22
2023-01-22T14:30:23.343Z,101370.03
2023-01-22T14:32:55.719Z,101361.88
2023-01-22T14:35:28.769Z,101372.25
2023-01-22T14:38:00.327Z,101375.97
2023-01-22T14:40:31.880Z,101366.97
2023-01-22T14:43:03.834Z,101372.41
2023-01-22T14:45:34.917Z,101364.75
2023-01-22T14:48:06.478Z,101372.66
2023-01-22T14:50:37.384Z,101381.72
2023-01-22T14:53:08.886Z,101380.94
2023-01-22T14:55:39.898Z,101376.84
2023-01-22T14:58:11.967Z,101377.47
2023-01-22T15:00:43.195Z,101372.47
2023-01-22T15:03:14.179Z,101381.28
2023-01-22T15:05:46.090Z,101382.38
2023-01-22T15:08:17.215Z,101379.28
2023-01-22T15:10:48.125Z,101376.72
2023-01-22T15:13:19.195Z,101372.91
2023-01-22T15:15:50.275Z,101368.38
2023-01-22T15:18:21.499Z,101368.88
2023-01-22T15:20:52.514Z,101372.09
2023-01-22T15:23:23.562Z,101372.09
2023-01-22T15:26:02.193Z,101370.28
2023-01-22T15:28:33.246Z,101368.19
2023-01-22T15:31:11.677Z,101371.31
2023-01-22T15:33:43.743Z,101380.63
2023-01-22T15:36:14.632Z,101375.69
2023-01-22T15:38:45.722Z,101379.41
2023-01-22T15:41:31.193Z,101377.69
2023-01-22T15:44:07.497Z,101375.28
2023-01-22T15:46:41.029Z,101390.63
2023-01-22T15:49:14.609Z,101384.56
2023-01-22T15:51:45.760Z,101385.84
2023-01-22T15:54:18.060Z,101380.78
2023-01-22T15:56:49.185Z,101396.06
2023-01-22T15:59:20.201Z,101395.63
2023-01-22T16:01:51.369Z,101386.41
2023-01-22T16:04:22.524Z,101402.97
2023-01-22T16:06:53.667Z,101410.50
2023-01-22T16:09:25.095Z,101411.75
2023-01-22T16:11:56.357Z,101412.56
2023-01-22T16:14:29.775Z,101415.69
2023-01-22T16:17:01.971Z,101418.31
2023-01-22T16:19:33.283Z,101416.25
2023-01-22T16:22:04.547Z,101411.72
2023-01-22T16:24:35.906Z,101406.41
2023-01-22T16:27:06.796Z,101415.91
2023-01-22T16:29:37.725Z,101413.72
2023-01-22T16:32:09.108Z,101410.59
2023-01-22T16:34:40.657Z,101431.84
2023-01-22T16:37:11.822Z,101423.72
2023-01-22T16:39:43.001Z,101424.31
2023-01-22T16:42:14.243Z,101425.28
2023-01-22T16:44:45.600Z,101415.13
2023-01-22T16:47:16.649Z,101422.00
2023-01-22T16:49:48.017Z,101426.41
2023-01-22T16:52:22.903Z,101418.91
2023-01-22T16:54:54.369Z,101422.22
2023-01-22T16:57:25.391Z,101439.94
2023-01-22T16:59:56.502Z,101434.78
2023-01-22T17:02:27.628Z,101436.16
2023-01-22T17:04:59.501Z,101434.66
2023-01-22T17:07:33.850Z,101436.47
2023-01-22T17:10:05.364Z,101438.53
2023-01-22T17:12:36.466Z,101443.44
2023-01-22T17:15:08.086Z,101444.28
2023-01-22T17:17:39.302Z,101440.97
2023-01-22T17:20:11.107Z,101444.84
2023-01-22T17:22:41.992Z,101457.06
2023-01-22T17:25:12.995Z,101468.31
2023-01-22T17:27:44.374Z,101472.53
2023-01-22T17:30:17.143Z,101483.19
2023-01-22T17:32:48.650Z,101494.34
2023-01-22T17:35:19.859Z,101489.03
2023-01-22T17:37:51.119Z,101495.41
2023-01-22T17:40:22.333Z,101501.94
2023-01-22T17:42:53.575Z,101493.47
2023-01-22T17:45:24.671Z,101490.22
2023-01-22T17:47:56.029Z,101501.34
2023-01-22T17:50:26.932Z,101502.66
2023-01-22T17:52:57.761Z,101510.81
2023-01-22T17:55:31.303Z,101520.22
2023-01-22T17:58:02.295Z,101520.03
2023-01-22T18:00:33.477Z,101527.28
2023-01-22T18:03:04.889Z,101532.88
2023-01-22T18:05:36.915Z,101532.38
2023-01-22T18:08:08.176Z,101534.41
2023-01-22T18:10:40.407Z,101524.53
2023-01-22T18:13:11.502Z,101533.72
2023-01-22T18:15:47.995Z,101519.06
2023-01-22T18:18:19.563Z,101518.94
2023-01-22T18:20:51.089Z,101522.69
2023-01-22T18:23:22.489Z,101519.88
2023-01-22T18:25:57.757Z,101509.59
2023-01-22T18:28:29.841Z,101509.78
2023-01-22T18:31:16.570Z,101526.44
2023-01-22T18:33:49.643Z,101521.00
2023-01-22T18:36:24.444Z,101524.00
2023-01-22T18:38:56.024Z,101514.59
2023-01-22T18:41:28.669Z,101531.22
2023-01-22T18:44:02.095Z,101546.44
2023-01-22T18:46:35.613Z,101556.28
2023-01-22T18:49:10.168Z,101549.16
2023-01-22T18:51:43.432Z,101537.59
2023-01-22T18:54:14.731Z,101534.28
2023-01-22T18:56:45.842Z,101538.22
2023-01-22T18:59:17.006Z,101532.97
2023-01-22T19:01:53.017Z,101527.56
2023-01-22T19:04:24.166Z,101526.03
2023-01-22T19:06:58.320Z,101524.38
2023-01-22T19:09:29.924Z,101527.72
2023-01-22T19:12:01.230Z,101528.56
2023-01-22T19:14:32.561Z,101539.25
2023-01-22T19:17:05.056Z,101542.59
2023-01-22T19:19:36.276Z,101538.47
2023-01-22T19:22:07.398Z,101529.47
2023-01-22T19:24:38.920Z,101536.56
2023-01-22T19:27:10.052Z,101541.03
2023-01-22T19:29:41.315Z,101537.22
2023-01-22T19:32:16.286Z,101543.75
2023-01-22T19:34:47.388Z,101547.94
2023-01-22T19:37:19.187Z,101552.88
2023-01-22T19:39:50.428Z,101557.31
2023-01-22T19:42:21.501Z,101553.75
2023-01-22T19:44:53.652Z,101548.47
2023-01-22T19:47:25.071Z,101541.63
2023-01-22T19:49:55.984Z,101546.84
2023-01-22T19:52:28.985Z,101553.19
2023-01-22T19:55:00.102Z,101552.94
2023-01-22T19:57:31.610Z,101551.81
2023-01-22T20:00:02.677Z,101550.50
2023-01-22T20:02:39.528Z,101557.97
2023-01-22T20:05:10.782Z,101558.44
2023-01-22T20:07:41.931Z,101558.00
2023-01-22T20:10:15.494Z,101534.28
2023-01-22T20:12:46.956Z,101555.09
2023-01-22T20:15:18.211Z,101548.06
2023-01-22T20:17:51.482Z,101549.19
2023-01-22T20:20:23.887Z,101540.63
2023-01-22T20:22:55.493Z,101539.00
2023-01-22T20:25:26.444Z,101548.34
2023-01-22T20:27:57.766Z,101553.84
2023-01-22T20:30:28.966Z,101550.75
2023-01-22T20:32:59.910Z,101560.53
2023-01-22T20:35:31.129Z,101564.19
2023-01-22T20:38:03.089Z,101538.22
2023-01-22T20:40:36.091Z,101558.75
2023-01-22T20:43:07.956Z,101553.94
2023-01-22T20:45:38.903Z,101556.19
2023-01-22T20:50:44.465Z,101556.50
2023-01-22T20:53:15.357Z,101548.47
2023-01-22T20:55:46.453Z,101557.25
2023-01-22T20:58:17.559Z,101548.06
2023-01-22T21:00:49.293Z,101560.06
2023-01-22T21:03:20.488Z,101543.84
2023-01-22T21:05:52.167Z,101554.66
2023-01-22T21:08:23.096Z,101546.31
2023-01-22T21:11:14.245Z,101551.75
2023-01-22T21:13:45.567Z,101551.19
2023-01-22T21:16:19.443Z,101543.22
2023-01-22T21:18:50.950Z,101540.41
2023-01-22T21:21:22.562Z,101546.78
2023-01-22T21:23:56.170Z,101555.06
2023-01-22T21:26:29.489Z,101552.38
2023-01-22T21:29:03.812Z,101558.13
2023-01-22T21:31:35.231Z,101552.56
2023-01-22T21:34:07.228Z,101549.13
2023-01-22T21:36:41.367Z,101553.41
2023-01-22T21:39:15.801Z,101552.97
2023-01-22T21:41:47.265Z,101550.25
2023-01-22T21:44:39.235Z,101546.84
2023-01-22T21:47:09.401Z,101554.75
2023-01-22T21:49:40.567Z,101556.88
2023-01-22T21:52:11.694Z,101559.66
2023-01-22T21:54:45.407Z,101564.69
2023-01-22T21:57:18.222Z,101556.50
2023-01-22T21:59:49.115Z,101561.31
2023-01-22T22:02:20.993Z,101555.38
2023-01-22T22:04:51.239Z,101548.13
2023-01-22T22:07:22.507Z,101559.31
2023-01-22T22:09:53.621Z,101559.91
2023-01-22T22:12:25.075Z,101554.88
2023-01-22T22:14:56.261Z,101548.53
2023-01-22T22:17:27.543Z,101548.63
2023-01-22T22:19:58.836Z,101549.19
2023-01-22T22:22:30.232Z,101536.22
2023-01-22T22:25:01.339Z,101541.94
2023-01-22T22:27:32.996Z,101531.69
2023-01-22T22:30:04.343Z,101542.13
2023-01-22T22:32:35.441Z,101537.03
2023-01-22T22:35:06.919Z,101530.59
2023-01-22T22:37:38.331Z,101528.97
2023-01-22T22:40:12.574Z,101520.69
2023-01-22T22:42:43.694Z,101518.47
2023-01-22T22:45:14.861Z,101520.00
2023-01-22T22:47:45.499Z,101531.38
2023-01-22T22:50:16.654Z,101529.44
2023-01-22T22:52:48.713Z,101532.06
2023-01-22T22:55:19.679Z,101529.69
2023-01-22T22:57:51.210Z,101529.28
2023-01-22T23:00:22.618Z,101527.38
2023-01-22T23:02:53.984Z,101524.31
2023-01-22T23:05:24.907Z,101528.66
2023-01-22T23:07:55.783Z,101521.13
2023-01-22T23:10:33.090Z,101519.19
2023-01-22T23:13:05.980Z,101513.19
2023-01-22T23:15:37.285Z,101510.34
2023-01-22T23:18:08.452Z,101507.19
2023-01-22T23:20:39.670Z,101498.22
2023-01-22T23:23:10.807Z,101506.53
2023-01-22T23:25:45.537Z,101505.28
2023-01-22T23:28:16.425Z,101496.06
2023-01-22T23:30:47.540Z,101510.50
2023-01-22T23:33:19.154Z,101507.06
2023-01-22T23:35:52.704Z,101502.50
2023-01-22T23:38:24.076Z,101506.44
2023-01-22T23:40:59.923Z,101505.28
2023-01-22T23:43:31.156Z,101499.22
2023-01-22T23:46:02.260Z,101504.44
2023-01-22T23:48:33.351Z,101497.16
2023-01-22T23:51:04.446Z,101490.03
2023-01-22T23:53:41.763Z,101486.56
2023-01-22T23:56:14.020Z,101492.28
2023-01-22T23:58:45.259Z,101494.34
